Terminal Aerodrome Forecast
Issued by NWS Newport/Morehead City, NC

Home | Current Version | Previous Version | Graphics & Text | Print | Product List | Glossary On
Versions: 1 2 3 4 5 6 7 8 9 10 11 12 13 14
259
FTUS42 KMHX 260525
TAFEWN
TAF
KEWN 260525Z 2606/2706 33011G17KT P6SM SKC
     FM261100 32007KT P6SM SKC
     FM262300 VRB02KT P6SM SKC=

USA.gov is the U.S. government's official web portal to all federal, state and local government web resources and services.